createdAt,value
2022-09-06T00:01:14.005Z,101243.16
2022-09-06T00:03:42.073Z,101247.25
2022-09-06T00:06:12.038Z,101253.13
2022-09-06T00:08:39.900Z,101257.16
2022-09-06T00:11:08.240Z,101255.88
2022-09-06T00:13:36.408Z,101253.88
2022-09-06T00:16:09.068Z,101255.81
2022-09-06T00:18:38.510Z,101258.28
2022-09-06T00:21:15.502Z,101257.81
2022-09-06T00:23:43.404Z,101260.56
2022-09-06T00:26:11.258Z,101248.44
2022-09-06T00:28:39.270Z,101259.72
2022-09-06T00:31:11.425Z,101261.91
2022-09-06T00:33:40.884Z,101255.81
2022-09-06T00:36:09.366Z,101261.06
2022-09-06T00:38:37.488Z,101251.31
2022-09-06T00:41:05.290Z,101244.72
2022-09-06T00:43:33.950Z,101249.66
2022-09-06T00:46:03.345Z,101242.66
2022-09-06T00:48:31.405Z,101242.66
2022-09-06T00:51:03.080Z,101239.84
2022-09-06T00:53:32.224Z,101253.94
2022-09-06T00:56:00.018Z,101252.81
2022-09-06T00:58:27.974Z,101251.41
2022-09-06T01:00:55.677Z,101254.50
2022-09-06T01:03:24.953Z,101252.53
2022-09-06T01:06:07.297Z,101254.13
2022-09-06T01:08:48.613Z,101255.28
2022-09-06T01:11:41.788Z,101246.00
2022-09-06T01:14:20.048Z,101246.25
2022-09-06T01:16:55.536Z,101235.16
2022-09-06T01:19:54.153Z,101241.09
2022-09-06T01:22:49.496Z,101241.34
2022-09-06T01:25:36.332Z,101231.16
2022-09-06T01:28:31.212Z,101232.84
2022-09-06T01:31:12.538Z,101229.53
2022-09-06T01:33:48.737Z,101224.50
2022-09-06T01:36:19.972Z,101220.25
2022-09-06T01:38:47.566Z,101222.25
2022-09-06T01:41:15.179Z,101218.88
2022-09-06T01:43:49.247Z,101210.66
2022-09-06T01:46:21.101Z,101219.19
2022-09-06T01:49:01.046Z,101216.50
2022-09-06T01:51:35.804Z,101221.69
2022-09-06T01:54:21.833Z,101212.19
2022-09-06T01:57:02.154Z,101213.50
2022-09-06T01:59:48.473Z,101215.88
2022-09-06T02:02:23.913Z,101199.38
2022-09-06T02:04:56.007Z,101202.03
2022-09-06T02:07:27.398Z,101190.13
2022-09-06T02:10:03.750Z,101188.72
2022-09-06T02:12:33.600Z,101189.38
2022-09-06T02:15:07.112Z,101182.69
2022-09-06T02:17:39.376Z,101194.03
2022-09-06T02:20:10.609Z,101200.00
2022-09-06T02:22:41.817Z,101205.28
2022-09-06T02:25:13.075Z,101191.13
2022-09-06T02:27:40.946Z,101198.28
2022-09-06T02:30:11.533Z,101199.38
2022-09-06T02:32:43.402Z,101200.94
2022-09-06T02:35:15.563Z,101188.47
2022-09-06T02:37:44.244Z,101194.59
2022-09-06T02:40:12.764Z,101185.63
2022-09-06T02:42:41.754Z,101185.84
2022-09-06T02:45:11.490Z,101180.09
2022-09-06T02:47:39.108Z,101192.69
2022-09-06T02:50:08.136Z,101196.59
2022-09-06T02:52:36.126Z,101191.19
2022-09-06T02:55:04.549Z,101186.84
2022-09-06T02:57:32.168Z,101191.00
2022-09-06T02:59:59.781Z,101186.09
2022-09-06T03:02:28.761Z,101183.75
2022-09-06T03:04:58.877Z,101179.56
2022-09-06T03:07:26.474Z,101176.34
2022-09-06T03:09:54.200Z,101171.81
2022-09-06T03:12:21.944Z,101176.38
2022-09-06T03:14:54.271Z,101167.53
2022-09-06T03:17:22.539Z,101170.53
2022-09-06T03:19:51.457Z,101168.16
2022-09-06T03:22:19.143Z,101167.03
2022-09-06T03:24:46.688Z,101171.78
2022-09-06T03:27:14.313Z,101169.19
2022-09-06T03:29:41.944Z,101175.44
2022-09-06T03:32:09.536Z,101185.09
2022-09-06T03:34:37.118Z,101189.16
2022-09-06T03:37:06.265Z,101180.91
2022-09-06T03:39:33.956Z,101181.63
2022-09-06T03:42:01.602Z,101194.41
2022-09-06T03:44:29.277Z,101186.41
2022-09-06T03:46:56.890Z,101187.22
2022-09-06T03:49:24.669Z,101175.91
2022-09-06T03:51:52.290Z,101178.75
2022-09-06T03:54:21.214Z,101168.75
2022-09-06T03:56:48.827Z,101167.59
2022-09-06T03:59:16.434Z,101175.72
2022-09-06T04:01:44.122Z,101179.03
2022-09-06T04:04:11.777Z,101180.59
2022-09-06T04:06:39.396Z,101186.44
2022-09-06T04:09:06.982Z,101186.19
2022-09-06T04:11:35.976Z,101186.81
2022-09-06T04:14:03.618Z,101183.97
2022-09-06T04:16:31.291Z,101186.09
2022-09-06T04:19:00.744Z,101176.84
2022-09-06T04:21:28.675Z,101188.09
2022-09-06T04:23:56.583Z,101185.47
2022-09-06T04:26:24.285Z,101177.69
2022-09-06T04:28:53.237Z,101177.56
2022-09-06T04:31:20.885Z,101176.06
2022-09-06T04:33:48.535Z,101178.09
2022-09-06T04:36:16.133Z,101175.09
2022-09-06T04:38:45.370Z,101169.97
2022-09-06T04:41:14.614Z,101167.34
2022-09-06T04:43:42.504Z,101169.97
2022-09-06T04:46:18.787Z,101166.53
2022-09-06T04:48:46.559Z,101170.47
2022-09-06T04:51:14.227Z,101169.41
2022-09-06T04:53:41.916Z,101171.66
2022-09-06T04:56:16.893Z,101172.16
2022-09-06T04:58:44.635Z,101170.81
2022-09-06T05:01:13.745Z,101175.09
2022-09-06T05:03:41.620Z,101175.47
2022-09-06T05:06:10.964Z,101171.03
2022-09-06T05:08:39.835Z,101157.94
2022-09-06T05:11:08.710Z,101159.81
2022-09-06T05:13:36.684Z,101172.16
2022-09-06T05:16:06.111Z,101174.97
2022-09-06T05:18:35.716Z,101165.81
2022-09-06T05:21:03.496Z,101172.47
2022-09-06T05:23:31.112Z,101160.81
2022-09-06T05:25:58.764Z,101160.94
2022-09-06T05:28:26.424Z,101153.41
2022-09-06T05:30:54.089Z,101158.31
2022-09-06T05:33:23.681Z,101166.19
2022-09-06T05:35:52.578Z,101145.94
2022-09-06T05:38:20.219Z,101156.53
2022-09-06T05:40:47.838Z,101156.41
2022-09-06T05:43:18.424Z,101147.94
2022-09-06T05:45:46.189Z,101145.44
2022-09-06T05:48:13.946Z,101150.22
2022-09-06T05:50:41.558Z,101159.75
2022-09-06T05:53:10.498Z,101151.75
2022-09-06T05:55:42.336Z,101172.03
2022-09-06T05:58:10.668Z,101178.81
2022-09-06T06:00:38.253Z,101185.47
2022-09-06T06:03:05.833Z,101203.38
2022-09-06T06:05:33.419Z,101219.13
2022-09-06T06:08:01.091Z,101250.47
2022-09-06T06:10:30.140Z,101266.22
2022-09-06T06:12:58.276Z,101270.97
2022-09-06T06:15:25.956Z,101267.03
2022-09-06T06:17:53.524Z,101253.78
2022-09-06T06:20:21.182Z,101259.63
2022-09-06T06:22:48.772Z,101256.91
2022-09-06T06:25:17.006Z,101263.56
2022-09-06T06:27:45.912Z,101268.06
2022-09-06T06:30:18.238Z,101270.28
2022-09-06T06:32:46.123Z,101261.56
2022-09-06T06:35:14.389Z,101260.25
2022-09-06T06:37:42.881Z,101266.22
2022-09-06T06:40:11.606Z,101249.03
2022-09-06T06:42:39.288Z,101249.00
2022-09-06T06:45:09.453Z,101237.09
2022-09-06T06:47:37.085Z,101220.53
2022-09-06T06:50:05.253Z,101229.38
2022-09-06T06:52:32.877Z,101226.16
2022-09-06T06:55:00.559Z,101218.16
2022-09-06T06:57:28.292Z,101218.03
2022-09-06T06:59:55.932Z,101224.66
2022-09-06T07:02:25.151Z,101213.78
2022-09-06T07:04:52.859Z,101224.44
2022-09-06T07:07:38.028Z,101224.38
2022-09-06T07:12:56.372Z,101231.66
2022-09-06T07:15:24.292Z,101230.91
2022-09-06T07:17:55.327Z,101237.03
2022-09-06T07:20:23.569Z,101243.72
2022-09-06T07:25:47.770Z,101258.19
2022-09-06T07:28:15.451Z,101245.34
2022-09-06T07:30:43.115Z,101250.13
2022-09-06T07:33:12.455Z,101248.75
2022-09-06T07:35:40.042Z,101234.28
2022-09-06T07:38:07.658Z,101233.50
2022-09-06T07:40:35.267Z,101229.47
2022-09-06T07:43:02.886Z,101215.59
2022-09-06T07:45:30.476Z,101229.34
2022-09-06T07:47:59.767Z,101226.28
2022-09-06T07:50:46.464Z,101227.03
2022-09-06T07:53:18.445Z,101228.47
2022-09-06T07:55:50.885Z,101235.81
2022-09-06T07:58:18.529Z,101244.88
2022-09-06T08:00:46.178Z,101240.44
2022-09-06T08:03:13.807Z,101233.44
2022-09-06T08:11:19.841Z,101247.75
2022-09-06T08:13:50.968Z,101236.63
2022-09-06T08:16:20.064Z,101234.81
2022-09-06T08:18:52.499Z,101235.81
2022-09-06T08:21:23.729Z,101233.00
2022-09-06T08:23:52.924Z,101219.69
2022-09-06T08:26:22.691Z,101222.53
2022-09-06T08:28:54.594Z,101219.69
2022-09-06T08:31:23.300Z,101228.78
2022-09-06T08:33:52.297Z,101223.97
2022-09-06T08:36:21.901Z,101230.22
2022-09-06T08:38:49.504Z,101219.78
2022-09-06T08:41:25.801Z,101231.25
2022-09-06T08:46:51.908Z,101232.88
2022-09-06T08:49:19.632Z,101241.25
2022-09-06T08:52:08.192Z,101246.75
2022-09-06T08:54:41.419Z,101248.44
2022-09-06T08:57:16.921Z,101240.47
2022-09-06T08:59:44.558Z,101244.53
2022-09-06T09:02:15.397Z,101229.38
2022-09-06T09:04:47.936Z,101229.97
2022-09-06T09:07:36.752Z,101225.66
2022-09-06T09:10:09.576Z,101222.09
2022-09-06T09:12:45.077Z,101215.41
2022-09-06T09:15:15.901Z,101219.09
2022-09-06T09:17:45.123Z,101203.81
2022-09-06T09:20:12.788Z,101206.38
2022-09-06T09:22:43.015Z,101210.56
2022-09-06T09:25:21.220Z,101202.63
2022-09-06T09:27:57.413Z,101206.53
2022-09-06T09:33:26.734Z,101208.41
2022-09-06T09:35:55.185Z,101194.16
2022-09-06T09:38:27.776Z,101191.00
2022-09-06T09:40:57.327Z,101182.47
2022-09-06T09:43:27.356Z,101176.56
2022-09-06T09:46:15.698Z,101181.28
2022-09-06T09:48:49.554Z,101182.28
2022-09-06T09:51:26.622Z,101163.31
2022-09-06T09:53:58.709Z,101166.38
2022-09-06T09:56:33.545Z,101161.88
2022-09-06T09:59:03.600Z,101166.81
2022-09-06T10:01:34.560Z,101170.59
2022-09-06T10:07:10.130Z,101161.41
2022-09-06T10:09:42.088Z,101160.97
2022-09-06T10:12:16.614Z,101157.78
2022-09-06T10:14:46.388Z,101159.00
2022-09-06T10:17:28.656Z,101159.19
2022-09-06T10:19:56.606Z,101153.31
2022-09-06T10:22:28.538Z,101167.00
2022-09-06T10:25:19.530Z,101157.78
2022-09-06T10:28:10.896Z,101150.47
2022-09-06T10:30:45.784Z,101146.59
2022-09-06T10:33:27.342Z,101137.09
2022-09-06T10:35:58.496Z,101137.66
2022-09-06T10:38:41.688Z,101141.56
2022-09-06T10:41:33.139Z,101131.03
2022-09-06T10:44:13.941Z,101131.44
2022-09-06T10:46:46.314Z,101119.22
2022-09-06T10:49:18.674Z,101134.53
2022-09-06T10:51:50.023Z,101124.00
2022-09-06T10:54:21.967Z,101120.44
2022-09-06T10:56:57.018Z,101127.38
2022-09-06T10:59:37.457Z,101127.75
2022-09-06T11:02:19.564Z,101121.72
2022-09-06T11:07:41.474Z,101119.91
2022-09-06T11:10:17.150Z,101123.47
2022-09-06T11:12:51.407Z,101113.66
2022-09-06T11:15:21.940Z,101126.22
2022-09-06T11:17:54.215Z,101121.88
2022-09-06T11:20:31.998Z,101120.19
2022-09-06T11:23:31.309Z,101118.31
2022-09-06T11:26:15.010Z,101120.97
2022-09-06T11:28:48.692Z,101114.59
2022-09-06T11:34:21.578Z,101103.72
2022-09-06T11:36:52.446Z,101097.53
2022-09-06T11:42:42.534Z,101099.84
2022-09-06T11:45:22.082Z,101102.47
2022-09-06T11:47:50.645Z,101097.69
2022-09-06T11:51:01.888Z,101092.13
2022-09-06T11:53:31.829Z,101088.69
2022-09-06T11:56:25.838Z,101087.56
2022-09-06T11:58:58.640Z,101080.81
2022-09-06T12:01:40.922Z,101074.91
2022-09-06T12:04:11.697Z,101078.81
2022-09-06T12:06:43.599Z,101082.13
2022-09-06T12:09:32.267Z,101079.19
2022-09-06T12:12:01.163Z,101087.00
2022-09-06T12:14:35.742Z,101074.09
2022-09-06T12:17:25.527Z,101079.66
2022-09-06T12:19:59.445Z,101080.53
2022-09-06T12:22:54.573Z,101078.03
2022-09-06T12:25:52.483Z,101071.97
2022-09-06T12:28:47.085Z,101078.16
2022-09-06T12:31:25.427Z,101068.47
2022-09-06T12:33:54.757Z,101063.81
2022-09-06T12:36:29.698Z,101063.25
2022-09-06T12:39:01.740Z,101062.13
2022-09-06T12:41:31.827Z,101066.00
2022-09-06T12:44:01.364Z,101062.13
2022-09-06T12:46:30.940Z,101057.19
2022-09-06T12:49:09.645Z,101053.84
2022-09-06T12:51:38.820Z,101053.53
2022-09-06T12:54:21.758Z,101053.22
2022-09-06T12:56:50.304Z,101043.25
2022-09-06T12:59:20.206Z,101044.06
2022-09-06T13:01:56.358Z,101041.28
2022-09-06T13:04:32.135Z,101040.94
2022-09-06T13:07:03.450Z,101039.56
2022-09-06T13:09:33.717Z,101038.63
2022-09-06T13:12:07.643Z,101038.00
2022-09-06T13:14:36.121Z,101034.84
2022-09-06T13:17:04.580Z,101031.28
2022-09-06T13:19:35.331Z,101031.50
2022-09-06T13:22:05.435Z,101024.00
2022-09-06T13:24:47.115Z,101023.44
2022-09-06T13:27:26.254Z,101009.56
2022-09-06T13:29:58.881Z,101007.31
2022-09-06T13:32:28.101Z,101005.59
2022-09-06T13:34:57.771Z,101003.03
2022-09-06T13:37:27.135Z,100996.06
2022-09-06T13:39:57.191Z,100999.78
2022-09-06T13:42:30.784Z,100989.78
2022-09-06T13:45:17.758Z,100993.53
2022-09-06T13:47:45.448Z,100998.47
2022-09-06T13:50:13.228Z,100985.09
2022-09-06T13:52:41.315Z,100989.91
2022-09-06T13:55:15.335Z,100982.69
2022-09-06T13:57:43.649Z,100988.75
2022-09-06T14:00:12.474Z,100981.31
2022-09-06T14:02:41.435Z,100984.34
2022-09-06T14:05:09.500Z,100981.69
2022-09-06T14:07:37.293Z,100987.44
2022-09-06T14:10:06.042Z,100974.69
2022-09-06T14:12:35.574Z,100985.00
2022-09-06T14:15:03.257Z,100982.34
2022-09-06T14:17:32.752Z,100970.69
2022-09-06T14:20:03.360Z,100977.97
2022-09-06T14:22:31.249Z,100979.66
2022-09-06T14:24:58.878Z,100972.03
2022-09-06T14:27:27.254Z,100971.13
2022-09-06T14:29:56.212Z,100969.59
2022-09-06T14:32:24.681Z,100959.91
2022-09-06T14:34:52.392Z,100958.59
2022-09-06T14:37:21.562Z,100957.22
2022-09-06T14:39:50.225Z,100954.50
2022-09-06T14:42:17.990Z,100961.72
2022-09-06T14:44:45.725Z,100950.13
2022-09-06T14:47:14.681Z,100956.84
2022-09-06T14:49:42.259Z,100951.94
2022-09-06T14:52:10.134Z,100950.00
2022-09-06T14:54:37.921Z,100951.44
2022-09-06T14:57:06.819Z,100945.13
2022-09-06T14:59:34.490Z,100938.50
2022-09-06T15:02:02.294Z,100937.97
2022-09-06T15:04:31.321Z,100929.09
2022-09-06T15:06:59.066Z,100925.25
2022-09-06T15:09:27.610Z,100928.88
2022-09-06T15:11:55.492Z,100929.44
2022-09-06T15:14:24.769Z,100930.56
2022-09-06T15:16:56.509Z,100928.91
2022-09-06T15:19:25.329Z,100932.25
2022-09-06T15:21:54.414Z,100933.63
2022-09-06T15:24:22.702Z,100929.22
2022-09-06T15:26:50.412Z,100924.25
2022-09-06T15:29:18.613Z,100919.00
2022-09-06T15:31:50.211Z,100919.28
2022-09-06T15:34:18.367Z,100915.97
2022-09-06T15:36:46.072Z,100911.03
2022-09-06T15:39:15.138Z,100910.47
2022-09-06T15:41:42.789Z,100907.72
2022-09-06T15:44:11.943Z,100904.38
2022-09-06T15:46:51.021Z,100897.47
2022-09-06T15:49:25.614Z,100901.09
2022-09-06T15:51:56.131Z,100893.38
2022-09-06T15:54:46.000Z,100895.59
2022-09-06T15:57:16.210Z,100887.03
2022-09-06T15:59:44.457Z,100887.88
2022-09-06T16:02:12.678Z,100885.38
2022-09-06T16:04:40.590Z,100883.19
2022-09-06T16:07:08.938Z,100884.53
2022-09-06T16:09:37.971Z,100881.19
2022-09-06T16:12:06.080Z,100874.56
2022-09-06T16:14:33.665Z,100872.34
2022-09-06T16:17:01.329Z,100874.00
2022-09-06T16:19:28.973Z,100870.13
2022-09-06T16:21:58.674Z,100867.06
2022-09-06T16:24:26.488Z,100867.34
2022-09-06T16:26:55.530Z,100869.59
2022-09-06T16:29:23.234Z,100854.66
2022-09-06T16:31:52.624Z,100858.53
2022-09-06T16:34:20.319Z,100859.63
2022-09-06T16:36:49.982Z,100854.69
2022-09-06T16:39:17.659Z,100856.88
2022-09-06T16:41:47.156Z,100848.88
2022-09-06T16:44:18.097Z,100850.28
2022-09-06T16:46:47.515Z,100853.63
2022-09-06T16:49:17.322Z,100846.16
2022-09-06T16:51:46.024Z,100847.84
2022-09-06T16:54:15.324Z,100852.59
2022-09-06T16:56:43.203Z,100848.44
2022-09-06T16:59:11.974Z,100846.00
2022-09-06T17:01:41.855Z,100850.47
2022-09-06T17:04:10.503Z,100845.53
2022-09-06T17:06:44.136Z,100844.16
2022-09-06T17:09:12.794Z,100842.50
2022-09-06T17:11:40.920Z,100844.72
2022-09-06T17:14:09.025Z,100850.50
2022-09-06T17:16:54.284Z,100845.56
2022-09-06T17:19:23.387Z,100846.94
2022-09-06T17:21:51.006Z,100854.69
2022-09-06T17:24:18.725Z,100848.91
2022-09-06T17:26:46.363Z,100853.34
2022-09-06T17:29:14.077Z,100855.25
2022-09-06T17:31:41.748Z,100849.44
2022-09-06T17:34:09.689Z,100856.06
2022-09-06T17:36:39.856Z,100856.38
2022-09-06T17:39:09.401Z,100858.84
2022-09-06T17:41:39.252Z,100853.63
2022-09-06T17:44:10.374Z,100870.19
2022-09-06T17:46:47.565Z,100870.44
2022-09-06T17:49:20.354Z,100874.59
2022-09-06T17:51:49.477Z,100866.00
2022-09-06T17:54:17.680Z,100867.94
2022-09-06T17:56:45.548Z,100882.03
2022-09-06T17:59:15.533Z,100876.22
2022-09-06T18:01:45.618Z,100878.16
2022-09-06T18:04:14.919Z,100884.78
2022-09-06T18:06:46.267Z,100884.50
2022-09-06T18:09:17.751Z,100885.34
2022-09-06T18:11:47.289Z,100885.88
2022-09-06T18:14:20.633Z,100893.31
2022-09-06T18:16:49.474Z,100886.69
2022-09-06T18:19:18.843Z,100885.31
2022-09-06T18:21:47.318Z,100891.91
2022-09-06T18:24:16.684Z,100887.25
2022-09-06T18:26:44.936Z,100883.38
2022-09-06T18:29:18.279Z,100883.91
2022-09-06T18:31:45.974Z,100883.56
2022-09-06T18:34:13.927Z,100887.16
2022-09-06T18:36:42.193Z,100888.53
2022-09-06T18:39:11.239Z,100885.78
2022-09-06T18:41:58.007Z,100895.13
2022-09-06T18:44:28.279Z,100892.91
2022-09-06T18:47:01.186Z,100890.69
2022-09-06T18:49:30.070Z,100887.34
2022-09-06T18:52:00.009Z,100890.63
2022-09-06T18:54:27.988Z,100890.91
2022-09-06T18:56:57.401Z,100888.16
2022-09-06T18:59:25.080Z,100888.69
2022-09-06T19:01:52.857Z,100882.63
2022-09-06T19:04:20.784Z,100885.63
2022-09-06T19:06:48.586Z,100885.59
2022-09-06T19:09:18.069Z,100895.50
2022-09-06T19:11:49.174Z,100893.53
2022-09-06T19:14:18.424Z,100895.47
2022-09-06T19:16:46.430Z,100888.88
2022-09-06T19:19:14.164Z,100886.13
2022-09-06T19:21:42.702Z,100889.66
2022-09-06T19:24:12.051Z,100888.88
2022-09-06T19:26:41.539Z,100886.66
2022-09-06T19:29:13.379Z,100880.63
2022-09-06T19:31:43.731Z,100884.19
2022-09-06T19:34:12.186Z,100883.88
2022-09-06T19:36:40.298Z,100884.41
2022-09-06T19:39:10.413Z,100883.84
2022-09-06T19:41:41.708Z,100884.41
2022-09-06T19:44:11.620Z,100877.22
2022-09-06T19:46:45.375Z,100879.97
2022-09-06T19:49:16.564Z,100876.13
2022-09-06T19:51:46.356Z,100875.59
2022-09-06T19:54:15.401Z,100869.50
2022-09-06T19:56:44.389Z,100875.00
2022-09-06T19:59:13.604Z,100872.75
2022-09-06T20:01:43.325Z,100876.03
2022-09-06T20:04:12.866Z,100866.09
2022-09-06T20:06:42.610Z,100872.44
2022-09-06T20:09:11.833Z,100871.84
2022-09-06T20:11:41.057Z,100877.09
2022-09-06T20:14:09.693Z,100880.34
2022-09-06T20:16:41.390Z,100881.44
2022-09-06T20:19:11.968Z,100875.06
2022-09-06T20:21:40.074Z,100867.09
2022-09-06T20:24:10.125Z,100873.13
2022-09-06T20:26:38.051Z,100859.34
2022-09-06T20:29:06.846Z,100854.09
2022-09-06T20:31:36.477Z,100853.28
2022-09-06T20:34:06.448Z,100850.03
2022-09-06T20:36:34.598Z,100850.25
2022-09-06T20:39:03.277Z,100840.63
2022-09-06T20:41:33.778Z,100839.78
2022-09-06T20:44:02.007Z,100839.53
2022-09-06T20:46:32.185Z,100834.00
2022-09-06T20:49:04.224Z,100840.63
2022-09-06T20:51:33.335Z,100831.25
2022-09-06T20:54:05.189Z,100829.31
2022-09-06T20:56:37.298Z,100827.06
2022-09-06T20:59:07.198Z,100821.81
2022-09-06T21:01:37.009Z,100825.09
2022-09-06T21:04:07.574Z,100815.75
2022-09-06T21:06:37.062Z,100819.91
2022-09-06T21:09:06.707Z,100819.06
2022-09-06T21:11:36.174Z,100825.63
2022-09-06T21:14:05.001Z,100825.63
2022-09-06T21:16:33.903Z,100821.50
2022-09-06T21:19:03.809Z,100823.16
2022-09-06T21:21:33.213Z,100819.56
2022-09-06T21:24:01.160Z,100811.88
2022-09-06T21:26:28.946Z,100803.34
2022-09-06T21:28:58.160Z,100809.66
2022-09-06T21:31:27.667Z,100810.75
2022-09-06T21:33:58.050Z,100826.66
2022-09-06T21:36:29.395Z,100832.09
2022-09-06T21:38:59.211Z,100828.81
2022-09-06T21:41:27.574Z,100835.13
2022-09-06T21:43:56.862Z,100835.66
2022-09-06T21:46:32.364Z,100827.38
2022-09-06T21:49:03.772Z,100828.19
2022-09-06T21:51:32.260Z,100827.09
2022-09-06T21:54:03.322Z,100825.75
2022-09-06T21:56:31.655Z,100823.22
2022-09-06T21:58:59.923Z,100824.88
2022-09-06T22:01:31.536Z,100814.13
2022-09-06T22:03:59.329Z,100806.72
2022-09-06T22:06:28.940Z,100793.50
2022-09-06T22:08:57.486Z,100788.00
2022-09-06T22:11:27.691Z,100788.84
2022-09-06T22:13:59.081Z,100782.69
2022-09-06T22:16:27.901Z,100785.34
2022-09-06T22:18:57.250Z,100788.34
2022-09-06T22:21:25.218Z,100789.41
2022-09-06T22:23:54.103Z,100795.94
2022-09-06T22:26:23.050Z,100793.19
2022-09-06T22:28:54.382Z,100797.59
2022-09-06T22:31:22.724Z,100794.22
2022-09-06T22:33:50.710Z,100792.00
2022-09-06T22:36:19.765Z,100796.97
2022-09-06T22:38:47.440Z,100793.13
2022-09-06T22:41:15.206Z,100792.63
2022-09-06T22:43:42.804Z,100796.19
2022-09-06T22:46:12.588Z,100790.13
2022-09-06T22:48:40.288Z,100799.75
2022-09-06T22:51:08.191Z,100798.13
2022-09-06T22:53:37.233Z,100781.63
2022-09-06T22:56:05.445Z,100778.63
2022-09-06T22:58:33.816Z,100784.13
2022-09-06T23:01:07.351Z,100778.88
2022-09-06T23:03:35.275Z,100775.88
2022-09-06T23:06:03.718Z,100779.13
2022-09-06T23:08:32.098Z,100779.38
2022-09-06T23:11:05.485Z,100778.25
2022-09-06T23:13:33.194Z,100766.16
2022-09-06T23:16:03.882Z,100759.00
2022-09-06T23:18:31.626Z,100770.00
2022-09-06T23:21:04.584Z,100769.44
2022-09-06T23:23:32.241Z,100762.84
2022-09-06T23:26:06.156Z,100763.44
2022-09-06T23:28:33.766Z,100764.81
2022-09-06T23:31:02.756Z,100764.25
2022-09-06T23:33:31.241Z,100755.19
2022-09-06T23:35:59.170Z,100754.31
2022-09-06T23:38:27.016Z,100758.69
2022-09-06T23:40:54.687Z,100752.13
2022-09-06T23:43:23.617Z,100759.00
2022-09-06T23:45:51.232Z,100743.03
2022-09-06T23:48:18.952Z,100735.56
2022-09-06T23:50:46.835Z,100721.78
2022-09-06T23:53:16.318Z,100723.88
2022-09-06T23:55:44.649Z,100719.78
2022-09-06T23:58:12.540Z,100721.41
